createdAt,value
2017-01-08T00:00:20.657Z,38.22
2017-01-08T00:01:20.636Z,38.31
2017-01-08T00:02:20.613Z,38.41
2017-01-08T00:03:20.584Z,38.41
2017-01-08T00:04:20.570Z,38.31
2017-01-08T00:05:20.542Z,38.5
2017-01-08T00:06:20.919Z,38.5
2017-01-08T00:07:20.506Z,38.6
2017-01-08T00:08:20.476Z,38.5
2017-01-08T00:09:20.454Z,38.6
2017-01-08T00:10:20.447Z,38.5
2017-01-08T00:11:20.413Z,38.69
2017-01-08T00:12:20.391Z,38.98
2017-01-08T00:13:20.364Z,38.79
2017-01-08T00:14:20.338Z,38.69
2017-01-08T00:15:20.317Z,38.79
2017-01-08T00:16:20.289Z,38.79
2017-01-08T00:17:20.271Z,38.79
2017-01-08T00:18:20.248Z,38.69
2017-01-08T00:19:20.230Z,39.07
2017-01-08T00:20:20.228Z,38.88
2017-01-08T00:21:20.191Z,39.07
2017-01-08T00:22:20.161Z,38.98
2017-01-08T00:23:20.140Z,39.17
2017-01-08T00:24:20.109Z,39.17
2017-01-08T00:25:20.101Z,38.98
2017-01-08T00:26:20.071Z,38.98
2017-01-08T00:27:20.047Z,39.07
2017-01-08T00:28:20.024Z,39.17
2017-01-08T00:29:20.008Z,39.54
2017-01-08T00:30:19.983Z,39.64
2017-01-08T00:31:19.961Z,39.26
2017-01-08T00:32:19.929Z,39.45
2017-01-08T00:33:19.907Z,39.54
2017-01-08T00:34:19.886Z,39.64
2017-01-08T00:35:19.860Z,39.64
2017-01-08T00:36:19.834Z,39.45
2017-01-08T00:37:19.820Z,39.17
2017-01-08T00:38:19.789Z,39.83
2017-01-08T00:39:19.769Z,39.54
2017-01-08T00:40:19.747Z,39.64
2017-01-08T00:41:19.724Z,40.01
2017-01-08T00:42:19.703Z,39.83
2017-01-08T00:43:19.678Z,40.2
2017-01-08T00:44:19.657Z,40.2
2017-01-08T00:45:19.633Z,39.92
2017-01-08T00:46:19.613Z,40.11
2017-01-08T00:47:19.588Z,39.92
2017-01-08T00:48:19.569Z,40.49
2017-01-08T00:49:19.549Z,40.39
2017-01-08T00:50:19.522Z,40.49
2017-01-08T00:51:19.501Z,40.39
2017-01-08T00:52:19.477Z,40.01
2017-01-08T00:53:19.456Z,40.2
2017-01-08T00:54:19.433Z,40.3
2017-01-08T00:55:19.615Z,40.58
2017-01-08T00:56:19.393Z,40.58
2017-01-08T00:57:19.366Z,40.68
2017-01-08T00:58:19.739Z,40.87
2017-01-08T00:59:19.323Z,40.87
2017-01-08T01:00:19.297Z,41.06
2017-01-08T01:01:19.275Z,41.15
2017-01-08T01:02:19.251Z,40.96
2017-01-08T01:03:19.229Z,40.96
2017-01-08T01:04:19.211Z,40.87
2017-01-08T01:05:19.181Z,40.96
2017-01-08T01:06:19.167Z,41.06
2017-01-08T01:07:19.143Z,41.15
2017-01-08T01:08:19.115Z,41.44
2017-01-08T01:09:19.094Z,41.34
2017-01-08T01:10:19.070Z,41.34
2017-01-08T01:11:19.051Z,41.25
2017-01-08T01:12:19.032Z,41.15
2017-01-08T01:13:19.039Z,41.15
2017-01-08T01:14:18.983Z,41.15
2017-01-08T01:15:18.969Z,41.06
2017-01-08T01:16:18.944Z,41.06
2017-01-08T01:17:18.915Z,41.44
2017-01-08T01:18:18.898Z,41.15
2017-01-08T01:19:18.872Z,41.06
2017-01-08T01:20:18.844Z,41.34
2017-01-08T01:21:18.830Z,41.44
2017-01-08T01:22:18.814Z,41.44
2017-01-08T01:23:18.782Z,41.44
2017-01-08T01:24:19.174Z,41.34
2017-01-08T01:25:18.733Z,41.44
2017-01-08T01:26:18.722Z,41.34
2017-01-08T01:27:18.693Z,41.34
2017-01-08T01:28:18.669Z,41.34
2017-01-08T01:29:18.647Z,41.34
2017-01-08T01:30:18.625Z,41.53
2017-01-08T01:31:18.607Z,41.25
2017-01-08T01:32:18.580Z,41.44
2017-01-08T01:33:18.557Z,41.34
2017-01-08T01:34:18.533Z,41.34
2017-01-08T01:35:18.515Z,41.25
2017-01-08T01:36:18.490Z,41.44
2017-01-08T01:37:18.468Z,41.63
2017-01-08T01:38:18.443Z,41.72
2017-01-08T01:39:18.450Z,41.63
2017-01-08T01:40:18.404Z,41.82
2017-01-08T01:41:18.791Z,41.53
2017-01-08T01:42:18.357Z,41.63
2017-01-08T01:43:18.336Z,41.63
2017-01-08T01:44:18.315Z,41.53
2017-01-08T01:45:18.291Z,41.53
2017-01-08T01:46:18.268Z,41.53
2017-01-08T01:47:18.244Z,41.53
2017-01-08T01:48:18.228Z,41.44
2017-01-08T01:49:18.198Z,41.82
2017-01-08T01:50:18.181Z,41.91
2017-01-08T01:51:18.154Z,41.91
2017-01-08T01:52:18.136Z,42.29
2017-01-08T01:53:18.114Z,42.29
2017-01-08T01:54:18.108Z,41.72
2017-01-08T01:55:18.070Z,42.38
2017-01-08T01:56:18.042Z,42
2017-01-08T01:57:18.041Z,42.19
2017-01-08T01:58:18.012Z,41.63
2017-01-08T01:59:17.975Z,42
2017-01-08T02:00:17.959Z,41.82
2017-01-08T02:01:17.933Z,41.82
2017-01-08T02:02:17.910Z,42
2017-01-08T02:03:17.893Z,41.91
2017-01-08T02:04:17.869Z,42.76
2017-01-08T02:05:17.842Z,45.31
2017-01-08T02:06:18.245Z,45.98
2017-01-08T02:07:17.799Z,46.26
2017-01-08T02:08:17.830Z,46.55
2017-01-08T02:09:17.757Z,46.36
2017-01-08T02:10:17.737Z,47.2
2017-01-08T02:11:17.722Z,46.92
2017-01-08T02:12:17.690Z,46.92
2017-01-08T02:13:17.716Z,46.92
2017-01-08T02:14:17.663Z,47.2
2017-01-08T02:15:17.619Z,47.49
2017-01-08T02:16:17.601Z,47.3
2017-01-08T02:17:17.576Z,47.77
2017-01-08T02:18:17.556Z,47.39
2017-01-08T02:19:17.530Z,47.39
2017-01-08T02:20:17.515Z,47.77
2017-01-08T02:21:17.486Z,47.68
2017-01-08T02:22:17.467Z,47.39
2017-01-08T02:23:17.442Z,47.77
2017-01-08T02:24:17.425Z,47.87
2017-01-08T02:25:17.401Z,48.06
2017-01-08T02:26:17.379Z,48.15
2017-01-08T02:27:17.355Z,48.44
2017-01-08T02:28:17.335Z,48.44
2017-01-08T02:29:17.309Z,48.44
2017-01-08T02:30:17.285Z,48.44
2017-01-08T02:31:17.263Z,48.53
2017-01-08T02:32:17.243Z,48.53
2017-01-08T02:33:17.219Z,48.44
2017-01-08T02:34:17.226Z,48.53
2017-01-08T02:35:17.576Z,48.25
2017-01-08T02:36:17.154Z,48.53
2017-01-08T02:37:17.131Z,48.63
2017-01-08T02:38:17.108Z,48.44
2017-01-08T02:39:17.087Z,48.25
2017-01-08T02:40:17.064Z,48.63
2017-01-08T02:41:17.041Z,48.44
2017-01-08T02:42:17.021Z,48.53
2017-01-08T02:43:16.998Z,48.53
2017-01-08T02:44:16.976Z,48.34
2017-01-08T02:45:16.952Z,48.44
2017-01-08T02:46:16.931Z,48.34
2017-01-08T02:47:16.905Z,48.34
2017-01-08T02:48:16.887Z,48.53
2017-01-08T02:49:16.861Z,48.53
2017-01-08T02:50:16.843Z,48.53
2017-01-08T02:51:16.816Z,48.53
2017-01-08T02:52:16.794Z,48.53
2017-01-08T02:53:16.773Z,48.82
2017-01-08T02:54:16.753Z,48.63
2017-01-08T02:55:16.933Z,48.53
2017-01-08T02:56:16.704Z,48.53
2017-01-08T02:57:16.684Z,48.63
2017-01-08T02:58:16.661Z,48.44
2017-01-08T02:59:17.039Z,48.63
2017-01-08T03:00:16.614Z,48.44
2017-01-08T03:01:16.598Z,48.44
2017-01-08T03:02:16.577Z,48.53
2017-01-08T03:03:16.559Z,48.72
2017-01-08T03:04:16.528Z,48.72
2017-01-08T03:05:16.508Z,48.53
2017-01-08T03:06:16.485Z,48.72
2017-01-08T03:07:16.462Z,48.53
2017-01-08T03:08:16.493Z,48.63
2017-01-08T03:09:16.416Z,49.01
2017-01-08T03:10:16.395Z,48.91
2017-01-08T03:11:16.371Z,48.63
2017-01-08T03:12:16.353Z,48.53
2017-01-08T03:13:16.326Z,48.72
2017-01-08T03:14:16.309Z,48.91
2017-01-08T03:15:16.286Z,48.63
2017-01-08T03:16:16.258Z,48.53
2017-01-08T03:17:16.241Z,48.34
2017-01-08T03:18:16.217Z,48.34
2017-01-08T03:19:16.195Z,48.25
2017-01-08T03:20:16.169Z,48.44
2017-01-08T03:21:16.353Z,48.63
2017-01-08T03:22:16.134Z,48.34
2017-01-08T03:23:16.105Z,48.55
2017-01-08T03:24:16.089Z,48.65
2017-01-08T03:25:16.076Z,48.27
2017-01-08T03:26:16.048Z,48.06
2017-01-08T03:27:16.021Z,48.06
2017-01-08T03:28:15.997Z,47.99
2017-01-08T03:29:15.974Z,48.25
2017-01-08T03:30:15.953Z,47.96
2017-01-08T03:31:15.928Z,47.8
2017-01-08T03:32:15.957Z,47.89
2017-01-08T03:33:15.882Z,47.89
2017-01-08T03:34:15.865Z,47.89
2017-01-08T03:35:15.839Z,47.61
2017-01-08T03:36:15.819Z,47.7
2017-01-08T03:37:15.795Z,47.61
2017-01-08T03:38:15.773Z,47.51
2017-01-08T03:39:15.751Z,47.61
2017-01-08T03:40:15.727Z,47.61
2017-01-08T03:41:15.709Z,47.61
2017-01-08T03:42:15.685Z,47.42
2017-01-08T03:43:15.663Z,47.51
2017-01-08T03:44:15.640Z,47.7
2017-01-08T03:45:15.624Z,47.42
2017-01-08T03:46:15.597Z,47.51
2017-01-08T03:47:15.574Z,47.42
2017-01-08T03:48:15.556Z,47.51
2017-01-08T03:49:15.532Z,47.51
2017-01-08T03:50:15.508Z,47.51
2017-01-08T03:51:15.488Z,47.42
2017-01-08T03:52:15.515Z,47.42
2017-01-08T03:53:15.444Z,47.32
2017-01-08T03:54:15.421Z,47.32
2017-01-08T03:55:15.401Z,47.23
2017-01-08T03:56:15.378Z,47.23
2017-01-08T03:57:15.356Z,47.13
2017-01-08T03:58:15.336Z,47.23
2017-01-08T03:59:15.311Z,47.32
2017-01-08T04:00:15.292Z,47.32
2017-01-08T04:01:15.269Z,47.13
2017-01-08T04:02:15.248Z,47.13
2017-01-08T04:03:15.255Z,47.51
2017-01-08T04:04:15.219Z,47.42
2017-01-08T04:05:15.183Z,47.51
2017-01-08T04:06:15.160Z,47.32
2017-01-08T04:07:15.139Z,47.3
2017-01-08T04:08:15.117Z,47.13
2017-01-08T04:09:15.098Z,47.32
2017-01-08T04:10:15.099Z,47.32
2017-01-08T04:11:15.054Z,47.23
2017-01-08T04:12:15.028Z,47.32
2017-01-08T04:13:15.007Z,47.04
2017-01-08T04:14:14.985Z,47.13
2017-01-08T04:15:14.963Z,47.32
2017-01-08T04:16:14.941Z,47.61
2017-01-08T04:17:14.918Z,47.51
2017-01-08T04:18:14.899Z,47.13
2017-01-08T04:19:14.880Z,47.13
2017-01-08T04:20:14.855Z,46.85
2017-01-08T04:21:14.832Z,47.04
2017-01-08T04:22:14.815Z,47.04
2017-01-08T04:23:14.787Z,47.04
2017-01-08T04:24:14.766Z,46.85
2017-01-08T04:25:14.744Z,46.85
2017-01-08T04:26:14.724Z,47.04
2017-01-08T04:27:14.704Z,46.94
2017-01-08T04:28:14.683Z,47.23
2017-01-08T04:29:14.660Z,47.32
2017-01-08T04:30:14.635Z,46.85
2017-01-08T04:31:14.717Z,46.94
2017-01-08T04:32:14.598Z,47.04
2017-01-08T04:33:14.624Z,47.04
2017-01-08T04:34:14.555Z,46.92
2017-01-08T04:35:14.530Z,47.23
2017-01-08T04:36:14.508Z,46.94
2017-01-08T04:37:14.485Z,46.94
2017-01-08T04:38:14.465Z,47.13
2017-01-08T04:39:14.444Z,46.94
2017-01-08T04:40:14.423Z,46.94
2017-01-08T04:41:14.399Z,46.85
2017-01-08T04:42:14.376Z,47.23
2017-01-08T04:43:14.358Z,47.04
2017-01-08T04:44:14.336Z,47.04
2017-01-08T04:45:14.311Z,47.04
2017-01-08T04:46:14.290Z,46.94
2017-01-08T04:47:14.271Z,46.94
2017-01-08T04:48:14.299Z,47.04
2017-01-08T04:49:14.227Z,47.04
2017-01-08T04:50:14.204Z,46.85
2017-01-08T04:51:14.182Z,46.85
2017-01-08T04:52:14.162Z,46.85
2017-01-08T04:53:14.141Z,46.94
2017-01-08T04:54:14.147Z,47.13
2017-01-08T04:55:14.305Z,47.04
2017-01-08T04:56:14.078Z,47.13
2017-01-08T04:57:14.054Z,47.04
2017-01-08T04:58:14.080Z,46.94
2017-01-08T04:59:14.011Z,47.13
2017-01-08T05:00:13.983Z,47.04
2017-01-08T05:01:13.971Z,46.94
2017-01-08T05:02:13.943Z,47.04
2017-01-08T05:03:13.926Z,47.13
2017-01-08T05:04:13.901Z,47.13
2017-01-08T05:05:13.879Z,47.13
2017-01-08T05:06:13.857Z,47.23
2017-01-08T05:07:13.838Z,47.13
2017-01-08T05:08:13.812Z,47.13
2017-01-08T05:09:13.796Z,47.42
2017-01-08T05:10:13.771Z,47.61
2017-01-08T05:11:13.745Z,47.51
2017-01-08T05:12:13.730Z,47.51
2017-01-08T05:13:13.707Z,47.42
2017-01-08T05:14:13.681Z,47.32
2017-01-08T05:15:13.664Z,47.32
2017-01-08T05:16:13.638Z,47.51
2017-01-08T05:17:13.620Z,47.23
2017-01-08T05:18:13.598Z,46.94
2017-01-08T05:19:13.624Z,47.13
2017-01-08T05:20:13.553Z,47.13
2017-01-08T05:21:13.534Z,47.13
2017-01-08T05:22:13.509Z,47.23
2017-01-08T05:23:13.488Z,47.13
2017-01-08T05:24:13.465Z,47.23
2017-01-08T05:25:13.444Z,47.23
2017-01-08T05:26:13.419Z,47.23
2017-01-08T05:27:13.402Z,47.04
2017-01-08T05:28:13.383Z,47.13
2017-01-08T05:29:13.357Z,46.94
2017-01-08T05:30:13.337Z,46.94
2017-01-08T05:31:13.312Z,46.94
2017-01-08T05:32:13.293Z,46.94
2017-01-08T05:33:13.268Z,47.13
2017-01-08T05:34:13.247Z,46.94
2017-01-08T05:35:13.229Z,47.23
2017-01-08T05:36:13.206Z,47.23
2017-01-08T05:37:13.233Z,47.23
2017-01-08T05:38:13.194Z,47.13
2017-01-08T05:39:13.140Z,47.04
2017-01-08T05:40:13.121Z,47.23
2017-01-08T05:41:13.097Z,47.04
2017-01-08T05:42:13.073Z,47.32
2017-01-08T05:43:13.054Z,47.23
2017-01-08T05:44:13.036Z,46.85
2017-01-08T05:45:13.010Z,46.85
2017-01-08T05:46:12.988Z,46.94
2017-01-08T05:47:12.963Z,47.13
2017-01-08T05:48:12.945Z,47.13
2017-01-08T05:49:12.923Z,47.13
2017-01-08T05:50:12.909Z,47.13
2017-01-08T05:51:12.882Z,47.04
2017-01-08T05:52:12.858Z,47.23
2017-01-08T05:53:12.836Z,47.23
2017-01-08T05:54:12.815Z,47.13
2017-01-08T05:55:12.794Z,47.32
2017-01-08T05:56:12.794Z,47.04
2017-01-08T05:57:12.803Z,47.42
2017-01-08T05:58:12.725Z,47.51
2017-01-08T05:59:12.754Z,47.42
2017-01-08T06:00:12.685Z,47.32
2017-01-08T06:01:12.660Z,47.42
2017-01-08T06:02:12.642Z,47.42
2017-01-08T06:03:12.620Z,47.42
2017-01-08T06:04:12.599Z,47.04
2017-01-08T06:05:12.578Z,47.42
2017-01-08T06:06:12.555Z,47.61
2017-01-08T06:07:12.535Z,47.51
2017-01-08T06:08:12.509Z,47.32
2017-01-08T06:09:12.488Z,47.13
2017-01-08T06:10:12.466Z,47.13
2017-01-08T06:11:12.446Z,47.23
2017-01-08T06:12:12.426Z,47.23
2017-01-08T06:13:12.407Z,47.23
2017-01-08T06:14:12.387Z,47.13
2017-01-08T06:15:12.361Z,47.04
2017-01-08T06:16:12.339Z,47.32
2017-01-08T06:17:12.318Z,47.23
2017-01-08T06:18:12.303Z,47.04
2017-01-08T06:19:12.274Z,47.13
2017-01-08T06:20:12.254Z,47.42
2017-01-08T06:21:12.237Z,47.23
2017-01-08T06:22:12.219Z,47.32
2017-01-08T06:23:12.199Z,47.32
2017-01-08T06:24:12.174Z,47.32
2017-01-08T06:25:12.152Z,47.61
2017-01-08T06:26:12.122Z,47.13
2017-01-08T06:27:12.112Z,47.42
2017-01-08T06:28:12.081Z,47.42
2017-01-08T06:29:12.062Z,47.23
2017-01-08T06:30:12.039Z,46.94
2017-01-08T06:31:12.413Z,47.13
2017-01-08T06:32:11.997Z,47.13
2017-01-08T06:33:11.974Z,47.42
2017-01-08T06:34:11.955Z,47.32
2017-01-08T06:35:11.936Z,47.51
2017-01-08T06:36:11.914Z,47.51
2017-01-08T06:37:11.890Z,47.51
2017-01-08T06:38:11.872Z,47.61
2017-01-08T06:39:11.848Z,47.51
2017-01-08T06:40:11.826Z,47.61
2017-01-08T06:41:12.229Z,47.32
2017-01-08T06:42:11.788Z,47.51
2017-01-08T06:43:11.764Z,47.13
2017-01-08T06:44:11.740Z,47.32
2017-01-08T06:45:11.722Z,47.32
2017-01-08T06:46:11.697Z,47.42
2017-01-08T06:47:11.678Z,47.32
2017-01-08T06:48:11.654Z,47.42
2017-01-08T06:49:11.635Z,47.13
2017-01-08T06:50:11.615Z,47.13
2017-01-08T06:51:11.594Z,47.13
2017-01-08T06:52:11.569Z,47.23
2017-01-08T06:53:11.550Z,47.32
2017-01-08T06:54:11.527Z,47.13
2017-01-08T06:55:11.511Z,47.42
2017-01-08T06:56:11.483Z,47.04
2017-01-08T06:57:11.464Z,47.42
2017-01-08T06:58:11.442Z,47.51
2017-01-08T06:59:11.422Z,47.13
2017-01-08T07:00:11.404Z,47.42
2017-01-08T07:01:11.382Z,46.94
2017-01-08T07:02:11.360Z,47.13
2017-01-08T07:03:11.336Z,47.32
2017-01-08T07:04:11.319Z,47.42
2017-01-08T07:05:11.299Z,47.51
2017-01-08T07:06:11.273Z,47.32
2017-01-08T07:07:11.254Z,47.42
2017-01-08T07:08:11.229Z,47.13
2017-01-08T07:09:11.209Z,47.13
2017-01-08T07:10:11.188Z,47.13
2017-01-08T07:11:11.164Z,47.51
2017-01-08T07:12:11.143Z,47.42
2017-01-08T07:13:11.127Z,47.04
2017-01-08T07:14:11.103Z,47.13
2017-01-08T07:15:11.082Z,47.04
2017-01-08T07:16:11.057Z,47.13
2017-01-08T07:17:11.036Z,46.85
2017-01-08T07:18:11.015Z,47.32
2017-01-08T07:19:11.391Z,47.23
2017-01-08T07:20:10.976Z,47.13
2017-01-08T07:21:10.950Z,47.23
2017-01-08T07:22:10.926Z,46.94
2017-01-08T07:23:10.906Z,47.13
2017-01-08T07:24:10.889Z,46.94
2017-01-08T07:25:10.864Z,47.13
2017-01-08T07:26:10.843Z,46.94
2017-01-08T07:27:10.826Z,47.04
2017-01-08T07:28:10.799Z,47.04
2017-01-08T07:29:10.781Z,47.13
2017-01-08T07:30:10.757Z,46.94
2017-01-08T07:31:10.757Z,46.94
2017-01-08T07:32:10.715Z,46.94
2017-01-08T07:33:10.720Z,47.13
2017-01-08T07:34:10.673Z,47.23
2017-01-08T07:35:10.652Z,47.13
2017-01-08T07:36:10.627Z,47.23
2017-01-08T07:37:10.607Z,47.13
2017-01-08T07:38:10.592Z,47.04
2017-01-08T07:39:10.568Z,47.13
2017-01-08T07:40:10.545Z,47.13
2017-01-08T07:41:10.521Z,47.04
2017-01-08T07:42:10.501Z,47.13
2017-01-08T07:43:10.481Z,47.13
2017-01-08T07:44:10.457Z,47.13
2017-01-08T07:45:10.433Z,47.23
2017-01-08T07:46:10.469Z,47.13
2017-01-08T07:47:10.398Z,47.13
2017-01-08T07:48:10.375Z,47.13
2017-01-08T07:49:10.355Z,47.51
2017-01-08T07:50:10.333Z,47.13
2017-01-08T07:51:10.310Z,47.13
2017-01-08T07:52:10.293Z,47.13
2017-01-08T07:53:10.286Z,47.13
2017-01-08T07:54:10.651Z,47.13
2017-01-08T07:55:10.278Z,47.32
2017-01-08T07:56:10.211Z,47.42
2017-01-08T07:57:10.185Z,47.13
2017-01-08T07:58:10.164Z,47.61
2017-01-08T07:59:10.141Z,47.61
2017-01-08T08:00:10.119Z,47.23
2017-01-08T08:01:10.099Z,47.51
2017-01-08T08:02:10.076Z,47.7
2017-01-08T08:03:10.057Z,47.61
2017-01-08T08:04:10.037Z,47.51
2017-01-08T08:05:10.019Z,47.51
2017-01-08T08:06:10.043Z,47.51
2017-01-08T08:07:09.971Z,47.13
2017-01-08T08:08:09.953Z,47.61
2017-01-08T08:09:09.930Z,47.42
2017-01-08T08:10:09.908Z,47.42
2017-01-08T08:11:09.886Z,47.32
2017-01-08T08:12:09.865Z,47.23
2017-01-08T08:13:09.864Z,47.42
2017-01-08T08:14:09.824Z,47.51
2017-01-08T08:15:09.839Z,47.7
2017-01-08T08:16:09.780Z,47.7
2017-01-08T08:17:09.762Z,47.7
2017-01-08T08:18:09.736Z,47.61
2017-01-08T08:19:09.722Z,47.7
2017-01-08T08:20:09.696Z,47.32
2017-01-08T08:21:09.675Z,47.7
2017-01-08T08:22:09.655Z,47.8
2017-01-08T08:23:09.663Z,47.23
2017-01-08T08:24:09.613Z,47.7
2017-01-08T08:25:09.593Z,47.61
2017-01-08T08:26:09.570Z,47.8
2017-01-08T08:27:09.554Z,47.7
2017-01-08T08:28:09.528Z,47.61
2017-01-08T08:29:09.510Z,47.61
2017-01-08T08:30:09.487Z,47.7
2017-01-08T08:31:09.466Z,47.42
2017-01-08T08:32:09.442Z,47.51
2017-01-08T08:33:09.425Z,47.7
2017-01-08T08:34:09.402Z,47.23
2017-01-08T08:35:09.385Z,47.8
2017-01-08T08:36:09.362Z,47.7
2017-01-08T08:37:09.346Z,47.32
2017-01-08T08:38:09.327Z,47.7
2017-01-08T08:39:09.333Z,47.7
2017-01-08T08:40:09.400Z,47.53
2017-01-08T08:41:09.657Z,47.53
2017-01-08T08:42:09.240Z,47.32
2017-01-08T08:43:09.226Z,47.34
2017-01-08T08:44:09.203Z,47.53
2017-01-08T08:45:09.182Z,47.25
2017-01-08T08:46:09.155Z,47.63
2017-01-08T08:47:09.342Z,47.63
2017-01-08T08:48:09.114Z,47.63
2017-01-08T08:49:09.142Z,48.1
2017-01-08T08:50:09.080Z,47.44
2017-01-08T08:51:09.103Z,47.63
2017-01-08T08:52:09.034Z,47.44
2017-01-08T08:53:09.417Z,47.82
2017-01-08T08:54:08.991Z,47.63
2017-01-08T08:55:08.971Z,47.63
2017-01-08T08:56:09.210Z,47.53
2017-01-08T08:57:08.931Z,47.44
2017-01-08T08:58:08.908Z,47.53
2017-01-08T08:59:08.901Z,47.44
2017-01-08T09:00:08.870Z,47.44
2017-01-08T09:01:08.851Z,47.63
2017-01-08T09:02:08.826Z,47.72
2017-01-08T09:03:08.803Z,47.44
2017-01-08T09:04:08.787Z,47.25
2017-01-08T09:05:08.763Z,47.34
2017-01-08T09:06:08.764Z,47.25
2017-01-08T09:07:08.723Z,47.72
2017-01-08T09:08:08.713Z,47.16
2017-01-08T09:09:08.682Z,47.16
2017-01-08T09:10:08.693Z,47.16
2017-01-08T09:11:08.640Z,47.25
2017-01-08T09:12:08.617Z,47.06
2017-01-08T09:13:08.601Z,47.44
2017-01-08T09:14:08.586Z,47.44
2017-01-08T09:15:08.558Z,47.25
2017-01-08T09:16:08.540Z,47.06
2017-01-08T09:17:08.517Z,47.34
2017-01-08T09:18:08.498Z,47.44
2017-01-08T09:19:08.478Z,47.82
2017-01-08T09:20:08.509Z,47.16
2017-01-08T09:21:08.442Z,47.06
2017-01-08T09:22:08.419Z,47.34
2017-01-08T09:23:08.396Z,47.53
2017-01-08T09:24:08.378Z,47.44
2017-01-08T09:25:08.363Z,47.44
2017-01-08T09:26:08.338Z,47.53
2017-01-08T09:27:08.320Z,47.44
2017-01-08T09:28:08.296Z,47.53
2017-01-08T09:29:08.277Z,47.63
2017-01-08T09:30:08.259Z,47.53
2017-01-08T09:31:08.244Z,47.25
2017-01-08T09:32:08.222Z,47.25
2017-01-08T09:33:08.207Z,47.53
2017-01-08T09:34:08.176Z,47.34
2017-01-08T09:35:08.181Z,47.63
2017-01-08T09:36:08.134Z,47.63
2017-01-08T09:37:08.120Z,47.06
2017-01-08T09:38:08.101Z,46.5
2017-01-08T09:39:08.075Z,46.97
2017-01-08T09:40:08.062Z,46.59
2017-01-08T09:41:08.038Z,46.69
2017-01-08T09:42:08.018Z,46.69
2017-01-08T09:43:08.030Z,46.97
2017-01-08T09:44:07.975Z,46.88
2017-01-08T09:45:07.956Z,46.59
2017-01-08T09:46:07.943Z,46.4
2017-01-08T09:47:07.917Z,46.4
2017-01-08T09:48:07.900Z,46.69
2017-01-08T09:49:07.885Z,46.4
2017-01-08T09:50:07.860Z,46.59
2017-01-08T09:51:07.840Z,46.4
2017-01-08T09:52:07.819Z,46.5
2017-01-08T09:53:07.802Z,46.69
2017-01-08T09:54:07.780Z,46.78
2017-01-08T09:55:07.758Z,46.71
2017-01-08T09:56:07.757Z,46.4
2017-01-08T09:57:07.719Z,46.4
2017-01-08T09:58:07.750Z,46.31
2017-01-08T09:59:07.684Z,46.42
2017-01-08T10:00:07.660Z,46.21
2017-01-08T10:01:07.650Z,46.52
2017-01-08T10:02:07.623Z,46.42
2017-01-08T10:03:07.601Z,46.8
2017-01-08T10:04:07.591Z,46.42
2017-01-08T10:05:07.563Z,46.42
2017-01-08T10:06:07.544Z,46.42
2017-01-08T10:07:07.519Z,46.52
2017-01-08T10:08:07.507Z,46.42
2017-01-08T10:09:07.485Z,46.31
2017-01-08T10:10:07.465Z,46.59
2017-01-08T10:11:07.445Z,46.42
2017-01-08T10:12:07.427Z,45.95
2017-01-08T10:13:07.428Z,46.23
2017-01-08T10:14:07.388Z,46.04
2017-01-08T10:15:07.363Z,45.76
2017-01-08T10:16:07.349Z,45.67
2017-01-08T10:17:07.324Z,45.57
2017-01-08T10:18:07.306Z,45.57
2017-01-08T10:19:07.290Z,45.76
2017-01-08T10:20:07.668Z,45.57
2017-01-08T10:21:07.250Z,45.67
2017-01-08T10:22:07.229Z,45.76
2017-01-08T10:23:07.217Z,45.76
2017-01-08T10:24:07.236Z,45.48
2017-01-08T10:25:07.587Z,45.57
2017-01-08T10:26:07.160Z,45.57
2017-01-08T10:27:07.140Z,45.57
2017-01-08T10:28:07.112Z,45.67
2017-01-08T10:29:07.148Z,45.48
2017-01-08T10:30:07.078Z,45.38
2017-01-08T10:31:07.054Z,45.48
2017-01-08T10:32:07.035Z,45.48
2017-01-08T10:33:07.016Z,45.57
2017-01-08T10:34:06.994Z,45.57
2017-01-08T10:35:06.976Z,45.76
2017-01-08T10:36:06.956Z,45.67
2017-01-08T10:37:06.938Z,45.48
2017-01-08T10:38:06.919Z,45.38
2017-01-08T10:39:06.900Z,45.48
2017-01-08T10:40:06.882Z,45.67
2017-01-08T10:41:06.863Z,45.38
2017-01-08T10:42:06.841Z,45.48
2017-01-08T10:43:06.887Z,45.67
2017-01-08T10:44:06.806Z,45.67
2017-01-08T10:45:06.782Z,45.67
2017-01-08T10:46:06.765Z,45.57
2017-01-08T10:47:06.746Z,45.19
2017-01-08T10:48:06.940Z,45.1
2017-01-08T10:49:06.710Z,45.48
2017-01-08T10:50:06.686Z,45.57
2017-01-08T10:51:06.676Z,45.57
2017-01-08T10:52:06.645Z,45.48
2017-01-08T10:53:06.630Z,45.48
2017-01-08T10:54:06.616Z,45.57
2017-01-08T10:55:06.591Z,45.48
2017-01-08T10:56:06.778Z,45.38
2017-01-08T10:57:06.548Z,45.48
2017-01-08T10:58:06.533Z,45.57
2017-01-08T10:59:06.519Z,45.57
2017-01-08T11:00:06.494Z,45.67
2017-01-08T11:01:06.475Z,45.67
2017-01-08T11:02:06.457Z,45.57
2017-01-08T11:03:06.444Z,45.67
2017-01-08T11:04:06.418Z,45.67
2017-01-08T11:05:06.400Z,46.04
2017-01-08T11:06:06.378Z,45.67
2017-01-08T11:07:06.364Z,45.76
2017-01-08T11:08:06.342Z,45.57
2017-01-08T11:09:06.323Z,45.76
2017-01-08T11:10:06.708Z,45.67
2017-01-08T11:11:06.290Z,45.38
2017-01-08T11:12:06.263Z,45.67
2017-01-08T11:13:06.246Z,45.76
2017-01-08T11:14:06.230Z,45.67
2017-01-08T11:15:06.205Z,45.67
2017-01-08T11:16:06.241Z,45.67
2017-01-08T11:17:06.201Z,45.57
2017-01-08T11:18:06.155Z,45.48
2017-01-08T11:19:06.131Z,45.48
2017-01-08T11:20:06.112Z,45.95
2017-01-08T11:21:06.543Z,45.86
2017-01-08T11:22:06.075Z,46.14
2017-01-08T11:23:06.056Z,46.23
2017-01-08T11:24:06.038Z,46.33
2017-01-08T11:25:06.020Z,45.95
2017-01-08T11:26:06.000Z,46.52
2017-01-08T11:27:05.981Z,46.52
2017-01-08T11:28:05.965Z,46.71
2017-01-08T11:29:05.996Z,46.42
2017-01-08T11:30:05.925Z,46.33
2017-01-08T11:31:05.904Z,46.33
2017-01-08T11:32:05.890Z,46.23
2017-01-08T11:33:06.266Z,46.33
2017-01-08T11:34:05.852Z,46.23
2017-01-08T11:35:05.833Z,46.33
2017-01-08T11:36:06.209Z,46.23
2017-01-08T11:37:05.802Z,46.52
2017-01-08T11:38:05.780Z,46.42
2017-01-08T11:39:05.763Z,46.42
2017-01-08T11:40:05.737Z,46.42
2017-01-08T11:41:05.723Z,46.61
2017-01-08T11:42:05.700Z,46.8
2017-01-08T11:43:05.683Z,46.52
2017-01-08T11:44:05.664Z,46.9
2017-01-08T11:45:05.646Z,47.09
2017-01-08T11:46:05.624Z,46.61
2017-01-08T11:47:05.605Z,47.09
2017-01-08T11:48:05.586Z,47.56
2017-01-08T11:49:05.569Z,47.37
2017-01-08T11:50:05.600Z,47.09
2017-01-08T11:51:05.550Z,47.18
2017-01-08T11:52:05.514Z,47.09
2017-01-08T11:53:05.496Z,47.28
2017-01-08T11:54:05.480Z,47.66
2017-01-08T11:55:05.458Z,47.75
2017-01-08T11:56:05.491Z,48.03
2017-01-08T11:57:05.423Z,47.47
2017-01-08T11:58:05.407Z,47.66
2017-01-08T11:59:05.380Z,47.37
2017-01-08T12:00:05.363Z,47.66
2017-01-08T12:01:05.346Z,47.75
2017-01-08T12:02:05.329Z,47.66
2017-01-08T12:03:05.310Z,47.75
2017-01-08T12:04:05.290Z,47.85
2017-01-08T12:05:05.272Z,47.37
2017-01-08T12:06:05.248Z,47.56
2017-01-08T12:07:05.234Z,47.66
2017-01-08T12:08:05.212Z,47.94
2017-01-08T12:09:05.197Z,47.94
2017-01-08T12:10:05.177Z,48.03
2017-01-08T12:11:05.180Z,47.94
2017-01-08T12:12:05.137Z,48.03
2017-01-08T12:13:05.116Z,48.22
2017-01-08T12:14:05.102Z,48.51
2017-01-08T12:15:05.082Z,48.51
2017-01-08T12:16:05.067Z,48.51
2017-01-08T12:17:05.045Z,48.89
2017-01-08T12:18:05.025Z,48.7
2017-01-08T12:19:05.006Z,48.51
2017-01-08T12:20:04.992Z,48.89
2017-01-08T12:21:04.968Z,48.6
2017-01-08T12:22:04.957Z,48.63
2017-01-08T12:23:04.935Z,48.89
2017-01-08T12:24:04.916Z,48.79
2017-01-08T12:25:04.902Z,48.98
2017-01-08T12:26:04.877Z,48.89
2017-01-08T12:27:04.860Z,49.27
2017-01-08T12:28:04.840Z,49.65
2017-01-08T12:29:04.823Z,49.46
2017-01-08T12:30:04.800Z,49.93
2017-01-08T12:31:04.787Z,49.65
2017-01-08T12:32:04.764Z,49.65
2017-01-08T12:33:04.745Z,50.02
2017-01-08T12:34:04.728Z,50.02
2017-01-08T12:35:04.706Z,49.93
2017-01-08T12:36:04.693Z,50.02
2017-01-08T12:37:04.674Z,49.65
2017-01-08T12:38:04.654Z,49.93
2017-01-08T12:39:04.637Z,50.12
2017-01-08T12:40:04.615Z,50.59
2017-01-08T12:41:04.599Z,50.69
2017-01-08T12:42:04.577Z,50.78
2017-01-08T12:43:04.559Z,50.49
2017-01-08T12:44:04.539Z,50.21
2017-01-08T12:45:04.523Z,50.31
2017-01-08T12:46:04.549Z,50.4
2017-01-08T12:47:04.487Z,50.4
2017-01-08T12:48:04.463Z,50.49
2017-01-08T12:49:04.442Z,50.49
2017-01-08T12:50:04.425Z,50.78
2017-01-08T12:51:04.405Z,50.69
2017-01-08T12:52:04.787Z,50.69
2017-01-08T12:53:04.369Z,50.88
2017-01-08T12:54:04.347Z,50.88